Time;durP1;ratioP1;P1;durP2;ratioP2;P2;SDS_P1;SDS_P2;PMS_P1;PMS_P2;Temp;Humidity;BMP_temperature;BMP_pressure;BME280_temperature;BME280_humidity;BME280_pressure;Samples;Min_cycle;Max_cycle;Signal;HPM_P1;HPM_P2
2021/01/02 00:01:27;;;;;;;9.63;6.75;;;6.80;99.90;;;;;;5016054;28;20125;-83
2021/01/02 00:04:14;;;;;;;9.57;6.20;;;6.70;99.90;;;;;;5017335;28;20030;-84
2021/01/02 00:06:52;;;;;;;12.43;6.80;;;6.80;99.90;;;;;;5017334;28;20084;-83
2021/01/02 00:09:21;;;;;;;8.48;6.30;;;6.80;99.90;;;;;;5017303;28;20109;-83
2021/01/02 00:12:08;;;;;;;10.18;6.45;;;6.80;99.90;;;;;;5018209;28;20120;-83
2021/01/02 00:14:44;;;;;;;10.23;6.68;;;6.80;99.90;;;;;;5014182;28;20076;-74
2021/01/02 00:17:47;;;;;;;8.18;6.22;;;6.80;99.90;;;;;;5014706;28;20499;-74
2021/01/02 00:20:41;;;;;;;8.32;6.40;;;6.80;99.90;;;;;;4964600;28;20042;-74
2021/01/02 00:23:45;;;;;;;8.52;6.30;;;6.80;99.90;;;;;;5014443;28;20034;-74
2021/01/02 00:26:39;;;;;;;8.10;6.00;;;6.70;99.90;;;;;;5014644;28;20372;-74
2021/01/02 00:29:10;;;;;;;6.57;5.53;;;6.70;99.90;;;;;;5014520;28;20021;-74
2021/01/02 00:31:42;;;;;;;9.02;6.22;;;6.70;99.90;;;;;;5014502;28;20022;-75
2021/01/02 00:34:10;;;;;;;8.15;6.15;;;6.70;99.90;;;;;;5014246;28;20029;-74
2021/01/02 00:36:43;;;;;;;8.25;5.90;;;6.70;99.90;;;;;;5013236;28;20100;-75
2021/01/02 00:39:21;;;;;;;8.57;5.60;;;6.70;99.90;;;;;;5014478;28;20025;-75
2021/01/02 00:41:48;;;;;;;6.40;4.35;;;6.70;99.90;;;;;;5020267;28;20022;-74
2021/01/02 00:44:15;;;;;;;6.07;4.50;;;6.80;99.90;;;;;;5021365;28;20022;-74
2021/01/02 00:46:43;;;;;;;4.78;4.32;;;6.70;99.90;;;;;;5021698;28;20570;-74
2021/01/02 00:49:09;;;;;;;6.28;4.30;;;6.70;99.90;;;;;;5021990;28;20026;-74
2021/01/02 00:51:47;;;;;;;4.60;4.03;;;6.70;99.90;;;;;;5022241;28;20037;-74
2021/01/02 00:54:59;;;;;;;4.82;4.25;;;6.70;99.90;;;;;;5020407;28;20025;-74
2021/01/02 00:58:04;;;;;;;7.65;4.28;;;6.70;99.90;;;;;;5010941;28;20174;-75
2021/01/02 01:00:37;;;;;;;4.65;3.90;;;6.70;99.90;;;;;;5015207;28;20049;-74
2021/01/02 01:03:23;;;;;;;5.05;4.00;;;6.70;99.90;;;;;;5015311;28;20057;-74
2021/01/02 01:05:49;;;;;;;3.80;3.40;;;6.70;99.90;;;;;;5015830;28;20017;-75
2021/01/02 01:08:16;;;;;;;5.97;4.10;;;6.70;99.90;;;;;;5015221;28;20084;-74
2021/01/02 01:10:43;;;;;;;3.97;3.60;;;6.70;99.90;;;;;;5013588;28;20036;-74
2021/01/02 01:13:12;;;;;;;5.30;3.85;;;6.70;99.90;;;;;;5013929;28;20434;-74
2021/01/02 01:15:37;;;;;;;5.13;4.22;;;6.70;99.90;;;;;;5013424;28;20022;-74
2021/01/02 01:18:03;;;;;;;4.10;3.60;;;6.70;99.90;;;;;;5012212;28;20072;-74
2021/01/02 01:20:30;;;;;;;4.15;3.70;;;6.70;99.90;;;;;;5013349;28;20354;-74
2021/01/02 01:23:28;;;;;;;4.53;3.78;;;6.70;99.90;;;;;;5013255;28;20507;-74
2021/01/02 01:26:27;;;;;;;3.42;3.13;;;6.70;99.90;;;;;;5009259;28;20038;-74
2021/01/02 01:28:57;;;;;;;3.75;3.42;;;6.70;99.90;;;;;;5011902;28;20112;-74
2021/01/02 01:31:28;;;;;;;4.60;3.70;;;6.70;99.90;;;;;;5013156;28;20034;-74
2021/01/02 01:33:58;;;;;;;4.05;3.45;;;6.70;99.90;;;;;;5013184;28;20029;-74
2021/01/02 01:36:35;;;;;;;4.13;3.65;;;6.70;99.90;;;;;;5013103;28;20045;-74
2021/01/02 01:39:05;;;;;;;6.30;4.18;;;6.70;99.90;;;;;;5011778;28;20056;-75
2021/01/02 01:41:35;;;;;;;4.13;3.58;;;6.60;99.90;;;;;;5011693;28;20018;-75
2021/01/02 01:44:10;;;;;;;3.90;3.50;;;6.70;99.90;;;;;;5012855;28;20057;-74
2021/01/02 01:46:42;;;;;;;4.65;3.53;;;6.70;99.90;;;;;;5012913;28;20608;-73
2021/01/02 01:49:09;;;;;;;6.17;3.77;;;6.70;99.90;;;;;;5012691;28;20026;-73
2021/01/02 01:51:44;;;;;;;3.67;3.33;;;6.70;99.90;;;;;;5012838;28;20054;-73
2021/01/02 01:54:31;;;;;;;4.00;3.30;;;6.70;99.90;;;;;;5012885;28;20057;-73
2021/01/02 01:57:03;;;;;;;4.07;3.50;;;6.70;99.90;;;;;;5011422;28;20030;-74
2021/01/02 02:00:01;;;;;;;4.03;3.63;;;6.70;99.90;;;;;;5012950;28;20101;-74
2021/01/02 02:02:39;;;;;;;4.15;3.75;;;6.70;99.90;;;;;;5012525;28;20026;-74
2021/01/02 02:05:08;;;;;;;4.53;3.63;;;6.70;99.90;;;;;;5012740;28;20404;-73
2021/01/02 02:07:45;;;;;;;4.15;3.75;;;6.70;99.90;;;;;;5011417;28;20361;-75
2021/01/02 02:10:15;;;;;;;4.07;3.65;;;6.70;99.90;;;;;;5012752;28;20026;-73
2021/01/02 02:12:52;;;;;;;4.82;4.15;;;6.70;99.90;;;;;;5012683;28;20033;-74
2021/01/02 02:15:24;;;;;;;4.63;4.05;;;6.70;99.90;;;;;;5012541;28;20033;-73
2021/01/02 02:17:53;;;;;;;5.13;4.13;;;6.80;99.90;;;;;;5011138;28;20025;-75
2021/01/02 02:20:24;;;;;;;5.75;4.00;;;6.80;99.90;;;;;;5012366;28;20491;-73
2021/01/02 02:23:05;;;;;;;6.20;4.20;;;6.80;99.90;;;;;;5011331;28;20491;-74
2021/01/02 02:25:56;;;;;;;4.65;4.10;;;6.80;99.90;;;;;;5011187;28;20053;-74
2021/01/02 02:28:50;;;;;;;5.43;4.20;;;6.80;99.90;;;;;;5012336;28;20030;-74
2021/01/02 02:31:17;;;;;;;31.13;17.88;;;6.80;99.90;;;;;;5012245;28;20076;-74
2021/01/02 02:34:03;;;;;;;7.70;5.70;;;6.80;99.90;;;;;;5012118;28;20076;-74
2021/01/02 02:36:31;;;;;;;4.38;3.72;;;6.80;99.90;;;;;;5011926;28;20038;-74
2021/01/02 02:39:04;;;;;;;5.65;4.47;;;6.80;99.90;;;;;;5012111;28;20105;-74
2021/01/02 02:41:36;;;;;;;4.25;3.85;;;6.80;99.90;;;;;;5012120;28;20053;-74
2021/01/02 02:44:03;;;;;;;;;;;6.80;99.90;;;;;;5012366;28;20368;-74
2021/01/02 02:46:33;;;;;;;5.90;4.00;;;6.80;99.90;;;;;;5010635;28;20327;-75
2021/01/02 02:49:04;;;;;;;4.80;4.03;;;6.70;99.90;;;;;;5010895;28;20022;-74
2021/01/02 02:51:34;;;;;;;4.75;3.80;;;6.70;99.90;;;;;;5011959;28;20465;-84
2021/01/02 02:54:00;;;;;;;4.43;4.03;;;6.70;99.90;;;;;;5014030;28;20033;-84
2021/01/02 02:56:25;;;;;;;5.70;3.67;;;6.70;99.90;;;;;;5015276;28;20037;-84
2021/01/02 02:58:52;;;;;;;4.47;3.95;;;6.70;99.90;;;;;;5018870;28;20032;-83
2021/01/02 03:01:18;;;;;;;5.20;3.78;;;6.70;99.90;;;;;;5016686;28;20026;-84
2021/01/02 03:03:44;;;;;;;5.80;3.83;;;6.70;99.90;;;;;;5018081;28;20029;-85
2021/01/02 03:06:10;;;;;;;4.80;3.97;;;6.70;99.90;;;;;;5017874;28;20022;-84
2021/01/02 03:08:36;;;;;;;4.47;4.03;;;6.60;99.90;;;;;;5016403;28;20124;-84
2021/01/02 03:11:03;;;;;;;6.13;4.50;;;6.60;99.90;;;;;;5017782;28;20145;-84
2021/01/02 03:13:39;;;;;;;6.00;4.30;;;6.60;99.90;;;;;;5016328;28;20026;-82
2021/01/02 03:16:05;;;;;;;4.78;4.15;;;6.60;99.90;;;;;;5017145;28;20116;-82
2021/01/02 03:18:31;;;;;;;5.85;4.55;;;6.50;99.90;;;;;;5015167;28;20449;-81
2021/01/02 03:20:56;;;;;;;9.95;4.70;;;6.50;99.90;;;;;;5015202;28;20026;-81
2021/01/02 03:23:22;;;;;;;5.05;4.18;;;6.50;99.90;;;;;;5016763;28;20026;-81
2021/01/02 03:25:48;;;;;;;6.03;4.22;;;6.50;99.90;;;;;;5015609;28;20152;-81
2021/01/02 03:28:13;;;;;;;4.93;4.13;;;6.40;99.90;;;;;;5016526;28;20461;-81
2021/01/02 03:30:39;;;;;;;7.05;4.82;;;6.40;99.90;;;;;;5016660;28;20437;-81
2021/01/02 03:33:05;;;;;;;6.68;4.07;;;6.30;99.80;;;;;;5016467;28;20108;-81
2021/01/02 03:35:32;;;;;;;7.55;4.93;;;6.30;99.70;;;;;;5016448;28;20022;-80
2021/01/02 03:37:58;;;;;;;5.75;4.57;;;6.20;99.60;;;;;;5016710;28;20026;-81
2021/01/02 03:40:24;;;;;;;6.82;4.70;;;6.10;99.30;;;;;;5016880;28;20068;-81
2021/01/02 03:42:49;;;;;;;6.90;4.95;;;6.00;99.10;;;;;;5016667;28;20495;-81
2021/01/02 03:45:17;;;;;;;8.90;4.45;;;5.90;99.00;;;;;;5016368;28;20077;-81
2021/01/02 03:47:45;;;;;;;7.82;5.07;;;5.80;99.00;;;;;;5016434;28;20022;-81
2021/01/02 03:50:11;;;;;;;7.18;4.82;;;5.70;99.00;;;;;;5016496;28;20022;-81
2021/01/02 03:52:38;;;;;;;7.90;4.18;;;5.60;99.00;;;;;;5017340;28;20026;-83
2021/01/02 03:55:10;;;;;;;7.45;4.93;;;5.60;99.10;;;;;;5016969;28;20028;-83
2021/01/02 03:57:36;;;;;;;7.70;5.40;;;5.60;99.10;;;;;;5017043;28;20030;-83
2021/01/02 04:00:09;;;;;;;6.20;4.78;;;5.50;99.10;;;;;;5017043;28;20053;-83
2021/01/02 04:02:34;;;;;;;8.05;4.90;;;5.50;98.90;;;;;;5015690;28;20113;-82
2021/01/02 04:05:00;;;;;;;7.13;5.20;;;5.40;98.80;;;;;;5016849;28;20157;-82
2021/01/02 04:07:26;;;;;;;5.60;4.45;;;5.30;98.70;;;;;;5016781;28;20026;-83
2021/01/02 04:09:52;;;;;;;6.72;4.82;;;5.20;98.60;;;;;;5015657;28;20048;-80
2021/01/02 04:12:17;;;;;;;6.80;4.88;;;5.20;98.70;;;;;;5014664;28;20025;-73
2021/01/02 04:14:43;;;;;;;8.13;4.60;;;5.10;98.70;;;;;;5013277;28;20040;-73
2021/01/02 04:17:09;;;;;;;6.82;5.05;;;5.10;98.80;;;;;;5014649;28;20034;-73
2021/01/02 04:19:34;;;;;;;6.22;4.78;;;5.00;98.70;;;;;;5014518;28;20050;-73
2021/01/02 04:22:00;;;;;;;8.57;4.85;;;5.00;98.70;;;;;;5014564;28;20096;-73
2021/01/02 04:24:26;;;;;;;6.72;5.43;;;4.90;98.60;;;;;;5014399;28;20109;-74
2021/01/02 04:26:58;;;;;;;7.50;5.15;;;4.90;98.80;;;;;;5014428;28;20097;-74
2021/01/02 04:29:24;;;;;;;8.88;5.60;;;4.90;98.90;;;;;;5014482;28;20014;-74
2021/01/02 04:31:50;;;;;;;7.72;4.88;;;4.90;99.10;;;;;;5014327;28;20053;-73
2021/01/02 04:34:16;;;;;;;10.23;5.30;;;4.90;99.20;;;;;;5014201;28;20057;-73
2021/01/02 04:36:42;;;;;;;8.30;5.72;;;5.00;99.20;;;;;;5013007;28;20042;-73
2021/01/02 04:39:09;;;;;;;8.20;5.40;;;4.90;99.00;;;;;;5013022;28;20125;-73
2021/01/02 04:41:36;;;;;;;7.45;5.38;;;4.90;98.90;;;;;;5014081;28;20061;-73
2021/01/02 04:44:03;;;;;;;8.35;6.10;;;4.90;98.80;;;;;;5014064;28;20376;-74
2021/01/02 04:46:30;;;;;;;8.13;5.80;;;4.80;98.70;;;;;;5012594;28;20128;-74
2021/01/02 04:48:58;;;;;;;9.27;5.70;;;4.70;98.60;;;;;;5013953;28;20068;-74
2021/01/02 04:51:23;;;;;;;9.57;6.18;;;4.70;98.50;;;;;;5013901;28;20019;-74
2021/01/02 04:53:49;;;;;;;10.45;6.30;;;4.60;98.40;;;;;;5012490;28;20556;-74
2021/01/02 04:56:17;;;;;;;9.77;6.07;;;4.50;98.40;;;;;;5013947;28;20113;-73
2021/01/02 04:58:43;;;;;;;9.70;5.82;;;4.50;98.40;;;;;;5013837;28;20034;-73
2021/01/02 05:01:13;;;;;;;9.18;5.68;;;4.40;98.30;;;;;;5012390;28;20362;-74
2021/01/02 05:03:46;;;;;;;8.73;6.30;;;4.30;98.30;;;;;;5013505;28;20029;-74
2021/01/02 05:06:15;;;;;;;15.98;6.50;;;4.20;98.30;;;;;;5012309;28;20383;-73
2021/01/02 05:08:41;;;;;;;9.55;5.57;;;4.20;98.20;;;;;;5013333;28;20026;-73
2021/01/02 05:11:08;;;;;;;12.35;6.13;;;4.10;98.20;;;;;;5012191;28;20112;-73
2021/01/02 05:13:35;;;;;;;10.57;6.00;;;4.00;98.20;;;;;;5013513;28;20060;-74
2021/01/02 05:16:19;;;;;;;8.63;5.57;;;4.00;98.20;;;;;;5013361;28;20049;-73
2021/01/02 05:18:52;;;;;;;10.55;5.95;;;3.90;98.30;;;;;;5013419;28;20424;-73
2021/01/02 05:21:17;;;;;;;9.90;6.50;;;3.80;98.30;;;;;;5013203;28;20026;-73
2021/01/02 05:24:19;;;;;;;10.18;6.50;;;3.80;98.30;;;;;;5012574;28;20526;-73
2021/01/02 05:27:05;;;;;;;11.98;6.10;;;3.70;98.30;;;;;;5013364;28;20026;-73
2021/01/02 05:29:31;;;;;;;10.88;6.35;;;3.70;98.40;;;;;;5012891;28;20377;-74
2021/01/02 05:32:03;;;;;;;10.93;6.38;;;3.70;98.50;;;;;;5013319;28;20108;-74
2021/01/02 05:34:30;;;;;;;;;;;3.60;98.50;;;;;;5013542;28;20030;-73
2021/01/02 05:37:04;;;;;;;12.77;7.32;;;3.60;98.50;;;;;;5011688;28;19910;-72
2021/01/02 05:39:37;;;;;;;13.07;7.18;;;3.60;98.60;;;;;;5011870;28;20428;-73
2021/01/02 05:42:04;;;;;;;12.70;7.03;;;3.50;98.70;;;;;;5012689;28;20018;-74
2021/01/02 05:44:33;;;;;;;12.05;7.47;;;3.50;98.70;;;;;;5012231;28;20078;-74
2021/01/02 05:46:59;;;;;;;13.55;7.60;;;3.50;98.80;;;;;;5012444;28;20453;-74
2021/01/02 05:49:31;;;;;;;13.20;7.72;;;3.50;98.80;;;;;;5013087;28;20121;-74
2021/01/02 05:51:58;;;;;;;10.45;7.20;;;3.50;98.80;;;;;;5011398;28;20072;-74
2021/01/02 05:54:28;;;;;;;14.27;7.47;;;3.50;98.80;;;;;;5012487;28;20064;-75
2021/01/02 05:57:02;;;;;;;17.85;7.07;;;3.50;98.80;;;;;;5012506;28;20108;-75
2021/01/02 05:59:29;;;;;;;12.57;7.15;;;3.50;98.90;;;;;;5012435;28;20064;-73
2021/01/02 06:01:54;;;;;;;13.10;7.78;;;3.50;99.00;;;;;;5012472;28;20049;-74
2021/01/02 06:04:20;;;;;;;15.07;8.38;;;3.60;99.40;;;;;;5012496;28;20408;-74
2021/01/02 06:06:46;;;;;;;15.15;7.38;;;3.70;99.90;;;;;;5012412;28;20391;-73
2021/01/02 06:09:12;;;;;;;29.38;16.40;;;4.00;99.90;;;;;;5012241;28;20053;-73
2021/01/02 06:11:43;;;;;;;14.93;8.75;;;4.30;99.90;;;;;;5012344;28;20028;-74
2021/01/02 06:14:10;;;;;;;12.65;6.57;;;4.50;99.90;;;;;;5012294;28;20370;-74
2021/01/02 06:16:42;;;;;;;10.40;6.68;;;4.70;99.90;;;;;;5012265;28;20030;-73
2021/01/02 06:19:08;;;;;;;11.45;6.47;;;4.90;99.90;;;;;;5012101;28;20026;-73
2021/01/02 06:21:34;;;;;;;13.13;7.22;;;5.10;99.90;;;;;;5012147;28;20087;-74
2021/01/02 06:24:01;;;;;;;12.10;6.45;;;5.40;99.90;;;;;;5011829;28;20026;-73
2021/01/02 06:26:27;;;;;;;11.93;7.60;;;5.80;99.90;;;;;;5011908;28;20380;-74
2021/01/02 06:28:53;;;;;;;16.67;6.68;;;6.20;99.90;;;;;;5011759;28;20022;-74
2021/01/02 06:31:19;;;;;;;20.25;7.78;;;6.40;99.90;;;;;;5011698;28;20033;-73
2021/01/02 06:33:50;;;;;;;10.95;7.07;;;6.90;99.90;;;;;;5011209;28;20026;-74
2021/01/02 06:36:31;;;;;;;10.93;7.65;;;7.20;99.90;;;;;;5011824;28;20041;-74
2021/01/02 06:39:15;;;;;;;12.75;6.80;;;7.60;99.90;;;;;;5011846;28;20026;-74
2021/01/02 06:41:41;;;;;;;9.55;6.65;;;8.10;99.90;;;;;;5011710;28;20052;-74
2021/01/02 06:44:06;;;;;;;7.90;6.05;;;8.50;99.90;;;;;;5011728;28;20030;-75
2021/01/02 06:46:36;;;;;;;11.27;6.90;;;8.90;99.90;;;;;;5011470;28;20093;-76
2021/01/02 06:49:31;;;;;;;9.52;6.03;;;9.30;99.90;;;;;;5010315;28;20033;-75
2021/01/02 06:51:57;;;;;;;17.83;10.90;;;9.50;99.90;;;;;;5011915;28;20033;-77
2021/01/02 06:54:23;;;;;;;12.20;7.95;;;9.60;99.90;;;;;;5010268;28;20093;-74
2021/01/02 06:57:04;;;;;;;12.50;7.93;;;9.80;99.90;;;;;;5011691;28;20372;-77
2021/01/02 06:59:30;;;;;;;12.57;8.20;;;10.00;99.90;;;;;;5011950;28;20028;-76
2021/01/02 07:01:58;;;;;;;11.68;8.05;;;10.20;99.80;;;;;;5010964;28;20037;-76
2021/01/02 07:04:38;;;;;;;11.82;7.45;;;10.40;99.30;;;;;;5009573;28;20116;-79
2021/01/02 07:07:05;;;;;;;12.65;7.63;;;10.60;98.70;;;;;;5011241;28;20143;-77
2021/01/02 07:09:31;;;;;;;13.38;8.57;;;10.80;98.40;;;;;;5011055;28;20018;-76
2021/01/02 07:12:09;;;;;;;15.25;10.63;;;11.00;97.70;;;;;;5011454;28;20157;-77
2021/01/02 07:14:36;;;;;;;14.20;7.85;;;11.10;97.20;;;;;;5011524;28;20026;-76
2021/01/02 07:17:03;;;;;;;10.75;7.38;;;11.30;96.80;;;;;;5009461;28;20465;-77
2021/01/02 07:19:38;;;;;;;13.27;8.10;;;11.50;96.40;;;;;;5011094;28;20472;-76
2021/01/02 07:22:13;;;;;;;13.65;7.65;;;11.70;96.00;;;;;;5010577;28;20037;-77
2021/01/02 07:25:02;;;;;;;11.80;7.07;;;11.90;95.50;;;;;;5009625;28;20098;-77
2021/01/02 07:27:34;;;;;;;11.80;8.35;;;12.10;95.10;;;;;;5009700;28;20026;-77
2021/01/02 07:30:06;;;;;;;13.10;7.90;;;12.30;94.70;;;;;;5010884;28;20022;-76
2021/01/02 07:32:37;;;;;;;12.85;8.90;;;12.40;94.20;;;;;;5010949;28;20049;-76
2021/01/02 07:35:05;;;;;;;13.55;7.15;;;12.60;93.70;;;;;;5010758;28;20022;-76
2021/01/02 07:37:33;;;;;;;11.63;6.97;;;12.70;93.50;;;;;;5009325;28;20034;-77
2021/01/02 07:40:06;;;;;;;20.48;7.38;;;12.70;92.40;;;;;;5010879;28;20026;-77
2021/01/02 07:42:33;;;;;;;;;;;12.60;91.60;;;;;;5009292;28;20068;-77
2021/01/02 07:45:08;;;;;;;13.10;7.38;;;12.40;91.60;;;;;;5010191;28;20319;-76
2021/01/02 07:47:38;;;;;;;17.40;6.85;;;12.20;91.60;;;;;;5014311;28;20029;-78
2021/01/02 07:50:07;;;;;;;34.80;13.23;;;12.30;91.90;;;;;;5014135;28;20044;-78
2021/01/02 07:52:33;;;;;;;12.45;7.15;;;12.30;91.60;;;;;;5014464;28;20484;-77
2021/01/02 07:55:09;;;;;;;14.57;7.78;;;12.30;91.70;;;;;;5013878;28;20034;-77
2021/01/02 07:57:35;;;;;;;17.15;8.30;;;12.50;91.90;;;;;;5012722;28;20034;-77
2021/01/02 08:00:03;;;;;;;16.23;7.68;;;12.70;91.60;;;;;;5012950;28;20056;-77
2021/01/02 08:02:28;;;;;;;11.25;6.70;;;12.90;91.40;;;;;;5012855;28;20792;-77
2021/01/02 08:04:55;;;;;;;12.50;7.45;;;13.00;90.70;;;;;;5013599;28;20053;-78
2021/01/02 08:07:21;;;;;;;12.48;7.35;;;13.10;90.70;;;;;;5012641;28;20022;-77
2021/01/02 08:09:48;;;;;;;15.65;9.10;;;13.30;90.50;;;;;;5013946;28;20048;-78
2021/01/02 08:12:16;;;;;;;10.55;6.30;;;13.50;90.20;;;;;;5014123;28;20097;-78
2021/01/02 08:14:47;;;;;;;10.32;6.70;;;13.70;89.70;;;;;;5013961;28;20025;-78
2021/01/02 08:17:15;;;;;;;11.90;6.43;;;13.70;88.10;;;;;;5014191;28;20014;-78
2021/01/02 08:20:00;;;;;;;13.27;7.28;;;13.60;86.90;;;;;;5013647;28;20026;-79
2021/01/02 08:22:29;;;;;;;10.15;6.57;;;13.70;87.10;;;;;;5012723;28;20061;-78
2021/01/02 08:25:00;;;;;;;12.07;6.63;;;13.70;86.50;;;;;;5013220;28;20373;-77
2021/01/02 08:27:28;;;;;;;12.25;6.70;;;13.70;85.40;;;;;;5013289;28;20030;-79
2021/01/02 08:29:54;;;;;;;10.52;6.50;;;13.50;83.90;;;;;;5013448;28;20022;-78
2021/01/02 08:32:24;;;;;;;13.82;8.15;;;13.20;82.80;;;;;;5012239;28;20072;-77
2021/01/02 08:34:50;;;;;;;11.18;6.50;;;12.90;82.50;;;;;;5013286;28;20026;-78
2021/01/02 08:37:17;;;;;;;15.35;6.43;;;12.60;82.30;;;;;;5013502;28;20091;-77
2021/01/02 08:39:44;;;;;;;10.00;6.13;;;12.50;83.30;;;;;;5011884;28;20544;-78
2021/01/02 08:42:10;;;;;;;11.13;6.60;;;12.60;84.30;;;;;;5013221;28;20030;-78
2021/01/02 08:44:42;;;;;;;9.75;6.40;;;12.90;84.70;;;;;;5013050;28;20037;-83
2021/01/02 08:47:08;;;;;;;10.25;6.32;;;13.20;84.40;;;;;;5013753;28;20121;-85
2021/01/02 08:49:41;;;;;;;11.70;6.03;;;13.50;84.00;;;;;;5012443;28;20121;-80
2021/01/02 08:52:23;;;;;;;11.25;6.07;;;13.70;83.20;;;;;;5013483;28;20026;-82
2021/01/02 08:54:51;;;;;;;11.38;6.30;;;14.00;82.40;;;;;;5012949;28;20104;-77
2021/01/02 08:57:44;;;;;;;11.63;6.90;;;14.30;81.90;;;;;;5011995;28;20472;-78
2021/01/02 09:00:13;;;;;;;9.68;6.03;;;14.40;80.80;;;;;;5013916;28;20032;-82
2021/01/02 09:02:40;;;;;;;8.68;6.00;;;14.70;80.50;;;;;;5013586;28;20057;-82
2021/01/02 09:05:16;;;;;;;10.30;6.32;;;14.80;80.20;;;;;;5013519;28;20029;-82
2021/01/02 09:08:06;;;;;;;9.25;6.00;;;15.10;79.70;;;;;;5014106;28;20025;-81
2021/01/02 09:10:33;;;;;;;11.93;6.63;;;15.40;78.30;;;;;;5013805;28;20021;-84
2021/01/02 09:13:03;;;;;;;14.35;6.93;;;15.50;77.60;;;;;;5013486;28;20040;-82
2021/01/02 09:16:10;;;;;;;17.70;7.43;;;15.60;76.70;;;;;;5013130;28;20108;-82
2021/01/02 09:18:38;;;;;;;10.38;6.47;;;15.80;75.90;;;;;;4999994;28;20049;-82
2021/01/02 09:21:10;;;;;;;15.65;6.10;;;16.00;75.50;;;;;;5012049;28;20022;-82
2021/01/02 09:23:40;;;;;;;15.88;7.22;;;16.20;74.70;;;;;;5012077;28;20026;-81
2021/01/02 09:26:25;;;;;;;8.45;5.72;;;16.30;74.00;;;;;;5013353;28;20034;-82
2021/01/02 09:28:52;;;;;;;12.43;6.68;;;16.40;72.90;;;;;;5011645;28;20400;-81
2021/01/02 09:31:19;;;;;;;10.63;6.55;;;16.50;72.60;;;;;;5013085;28;20029;-81
2021/01/02 09:33:45;;;;;;;12.05;6.07;;;16.70;72.20;;;;;;5012609;28;20040;-84
2021/01/02 09:36:15;;;;;;;9.23;6.32;;;16.80;71.40;;;;;;5011787;28;20061;-83
2021/01/02 09:38:42;;;;;;;11.57;6.63;;;16.90;70.40;;;;;;4996596;28;20109;-82
2021/01/02 09:41:10;;;;;;;16.20;5.95;;;17.00;70.20;;;;;;4993458;28;20026;-85
2021/01/02 09:43:35;;;;;;;10.77;6.13;;;17.00;69.80;;;;;;4991679;28;20060;-83
2021/01/02 09:46:04;;;;;;;22.23;6.55;;;17.00;69.30;;;;;;4991924;28;20165;-84
2021/01/02 09:48:30;;;;;;;9.45;6.18;;;17.00;68.90;;;;;;4993711;28;20077;-83
2021/01/02 09:50:55;;;;;;;9.40;5.55;;;16.80;68.80;;;;;;4992224;28;20046;-83
2021/01/02 09:53:21;;;;;;;14.63;5.57;;;16.60;68.10;;;;;;4992531;28;20032;-84
2021/01/02 09:55:47;;;;;;;16.77;6.60;;;16.40;68.00;;;;;;4993569;28;20062;-83
2021/01/02 09:58:13;;;;;;;11.07;6.57;;;16.30;68.30;;;;;;4993446;28;20120;-82
2021/01/02 10:00:40;;;;;;;12.63;6.10;;;16.10;68.10;;;;;;4993189;28;20055;-83
2021/01/02 10:03:10;;;;;;;17.48;6.70;;;16.00;67.90;;;;;;4992370;28;20535;-83
2021/01/02 10:05:37;;;;;;;10.82;6.25;;;15.90;67.40;;;;;;4993685;28;20034;-82
2021/01/02 10:08:04;;;;;;;26.08;10.05;;;15.80;67.40;;;;;;4993292;28;20026;-82
2021/01/02 10:10:30;;;;;;;14.40;6.32;;;15.70;67.50;;;;;;4993639;28;20030;-83
2021/01/02 10:12:56;;;;;;;12.27;6.03;;;15.70;67.60;;;;;;5008706;28;20033;-83
2021/01/02 10:15:23;;;;;;;16.40;7.00;;;15.80;67.20;;;;;;5011185;28;20026;-83
2021/01/02 10:17:49;;;;;;;12.35;6.45;;;16.00;67.00;;;;;;5011147;28;20125;-84
2021/01/02 10:20:15;;;;;;;11.18;5.75;;;16.30;67.60;;;;;;5013571;28;20366;-84
2021/01/02 10:22:44;;;;;;;14.73;6.22;;;16.70;67.00;;;;;;5012154;28;20030;-84
2021/01/02 10:25:10;;;;;;;9.48;5.90;;;17.00;66.40;;;;;;5012228;28;20029;-84
2021/01/02 10:27:36;;;;;;;23.48;7.45;;;17.30;65.70;;;;;;5017543;28;20022;-85
2021/01/02 10:30:06;;;;;;;9.60;5.70;;;17.60;65.20;;;;;;5031289;28;20042;-84
2021/01/02 10:32:34;;;;;;;8.80;5.82;;;17.80;64.60;;;;;;5030528;28;20009;-85
2021/01/02 10:35:00;;;;;;;13.60;5.95;;;18.00;64.20;;;;;;5019635;28;20096;-85
2021/01/02 10:37:28;;;;;;;13.98;6.35;;;18.20;63.40;;;;;;5012561;28;20113;-87
2021/01/02 10:39:56;;;;;;;15.63;6.00;;;18.30;62.50;;;;;;5014155;28;20091;-84
2021/01/02 10:42:29;;;;;;;15.93;5.93;;;18.40;62.30;;;;;;5012290;28;20185;-82
2021/01/02 10:44:54;;;;;;;;;;;18.50;61.80;;;;;;5013516;28;20128;-84
2021/01/02 10:47:23;;;;;;;14.60;5.82;;;18.50;63.10;;;;;;5013034;28;20393;-83
2021/01/02 10:49:49;;;;;;;15.40;5.68;;;18.70;63.10;;;;;;5011873;28;20114;-83
2021/01/02 10:52:17;;;;;;;13.75;5.78;;;18.70;62.00;;;;;;5012636;28;20026;-84
2021/01/02 10:54:44;;;;;;;14.25;6.60;;;18.70;61.50;;;;;;5011605;28;20041;-78
2021/01/02 10:57:14;;;;;;;16.35;7.10;;;18.70;61.30;;;;;;5011653;28;20030;-79
2021/01/02 10:59:45;;;;;;;19.15;6.50;;;18.60;60.50;;;;;;5012735;28;20090;-80
2021/01/02 11:02:12;;;;;;;10.13;5.97;;;18.60;60.50;;;;;;5011797;28;20026;-79
2021/01/02 11:04:38;;;;;;;14.10;6.43;;;18.50;60.70;;;;;;5010587;28;20036;-78
2021/01/02 11:07:04;;;;;;;19.77;6.82;;;18.20;60.70;;;;;;5006637;28;20033;-78
2021/01/02 11:09:31;;;;;;;10.90;5.82;;;17.90;60.50;;;;;;5011340;28;20102;-77
2021/01/02 11:11:57;;;;;;;13.82;6.82;;;17.70;60.70;;;;;;5011198;28;20057;-79
2021/01/02 11:14:26;;;;;;;20.42;7.68;;;17.30;60.70;;;;;;5011540;28;20132;-79
2021/01/02 11:16:52;;;;;;;17.95;6.40;;;17.10;60.80;;;;;;5011146;28;20484;-82
2021/01/02 11:19:28;;;;;;;12.27;5.95;;;16.90;60.70;;;;;;5011975;28;20030;-79
2021/01/02 11:21:56;;;;;;;20.15;7.07;;;16.80;60.90;;;;;;5013923;28;20428;-79
2021/01/02 11:24:27;;;;;;;11.93;6.65;;;16.70;61.40;;;;;;5015216;28;20799;-77
2021/01/02 11:26:56;;;;;;;18.85;7.53;;;16.60;61.00;;;;;;5015198;28;20048;-78
2021/01/02 11:29:24;;;;;;;15.73;7.07;;;16.30;61.00;;;;;;5015133;28;20022;-80
2021/01/02 11:31:50;;;;;;;16.67;6.53;;;16.00;61.40;;;;;;5013821;28;20045;-80
2021/01/02 11:34:16;;;;;;;17.70;7.43;;;15.80;61.80;;;;;;5015234;28;20472;-77
2021/01/02 11:36:42;;;;;;;14.65;6.63;;;15.70;61.80;;;;;;5013834;28;20026;-80
2021/01/02 11:39:09;;;;;;;39.60;11.30;;;15.70;62.20;;;;;;5015064;28;20029;-79
2021/01/02 11:41:40;;;;;;;12.05;7.10;;;15.70;62.70;;;;;;5015640;28;20022;-80
2021/01/02 11:44:08;;;;;;;18.00;7.15;;;15.80;63.10;;;;;;5013456;28;20476;-78
2021/01/02 11:46:39;;;;;;;17.63;7.65;;;15.90;63.50;;;;;;5015377;28;20052;-81
2021/01/02 11:49:07;;;;;;;16.37;8.13;;;15.90;63.10;;;;;;5013618;28;20071;-79
2021/01/02 11:51:33;;;;;;;13.82;6.85;;;15.70;63.00;;;;;;5014879;28;20257;-81
2021/01/02 11:53:59;;;;;;;20.00;7.53;;;15.40;62.70;;;;;;5014674;28;20033;-79
2021/01/02 11:56:27;;;;;;;19.48;8.00;;;15.10;62.90;;;;;;5014665;28;20369;-79
2021/01/02 11:58:55;;;;;;;18.15;7.50;;;14.80;63.20;;;;;;5014170;28;20044;-79
2021/01/02 12:01:22;;;;;;;18.05;8.60;;;14.50;63.60;;;;;;5014502;28;20384;-79
2021/01/02 12:03:48;;;;;;;16.65;8.02;;;14.20;63.90;;;;;;5014337;28;20032;-77
2021/01/02 12:06:16;;;;;;;20.70;7.80;;;14.00;64.20;;;;;;5014275;28;20109;-79
2021/01/02 12:08:43;;;;;;;18.17;7.68;;;13.70;64.70;;;;;;5014298;28;20050;-78
2021/01/02 12:11:08;;;;;;;19.00;8.65;;;13.50;65.10;;;;;;5013895;28;20018;-78
2021/01/02 12:13:38;;;;;;;20.05;8.13;;;13.30;65.60;;;;;;5012553;28;20025;-80
2021/01/02 12:16:05;;;;;;;30.45;9.43;;;13.10;65.80;;;;;;5012281;28;20097;-79
2021/01/02 12:18:31;;;;;;;24.63;8.75;;;12.80;66.30;;;;;;5013993;28;20038;-79
2021/01/02 12:20:56;;;;;;;15.27;8.75;;;12.70;66.60;;;;;;5013597;28;20548;-79
2021/01/02 12:23:23;;;;;;;16.30;8.90;;;12.50;67.00;;;;;;5014176;28;20053;-78
2021/01/02 12:25:49;;;;;;;16.65;8.45;;;12.40;67.30;;;;;;5013793;28;20033;-79
2021/01/02 12:28:15;;;;;;;23.48;8.82;;;12.20;67.60;;;;;;5014135;28;20368;-78
2021/01/02 12:30:40;;;;;;;17.13;8.82;;;12.00;67.90;;;;;;5013797;28;20025;-79
2021/01/02 12:33:06;;;;;;;20.35;9.15;;;11.80;67.90;;;;;;5013700;28;20361;-78
2021/01/02 12:35:32;;;;;;;26.60;10.38;;;11.70;68.50;;;;;;5013926;28;20026;-78
2021/01/02 12:37:57;;;;;;;25.02;8.60;;;11.60;68.70;;;;;;5014366;28;20022;-78
2021/01/02 12:40:23;;;;;;;18.75;9.20;;;11.40;69.10;;;;;;5012987;28;20040;-80
2021/01/02 12:42:49;;;;;;;18.77;8.65;;;11.30;69.40;;;;;;5013731;28;20092;-78
2021/01/02 12:45:15;;;;;;;17.13;8.98;;;11.20;69.70;;;;;;5012926;28;20068;-78
2021/01/02 12:47:41;;;;;;;16.75;8.93;;;11.00;70.00;;;;;;5012083;28;20128;-78
2021/01/02 12:50:10;;;;;;;23.45;9.80;;;10.90;70.20;;;;;;5013819;28;20133;-77
2021/01/02 12:52:36;;;;;;;21.88;9.23;;;10.70;70.50;;;;;;5012064;28;20058;-78
2021/01/02 12:55:02;;;;;;;22.02;9.43;;;10.60;70.80;;;;;;5011991;28;20022;-77
2021/01/02 12:57:28;;;;;;;18.33;8.63;;;10.50;71.60;;;;;;5013500;28;20018;-77
2021/01/02 12:59:56;;;;;;;17.80;9.40;;;10.40;71.20;;;;;;5013441;28;20132;-78
2021/01/02 13:02:23;;;;;;;21.25;8.93;;;10.20;71.50;;;;;;5013509;28;20022;-78
2021/01/02 13:04:50;;;;;;;16.73;9.57;;;10.10;71.80;;;;;;5014704;28;20140;-81